Time;durP1;ratioP1;P1;durP2;ratioP2;P2;SDS_P1;SDS_P2;PMS_P1;PMS_P2;Temp;Humidity;BMP_temperature;BMP_pressure;BME280_temperature;BME280_humidity;BME280_pressure;Samples;Min_cycle;Max_cycle;Signal;HPM_P1;HPM_P2
2022/05/08 00:00:32;;;;;;;11.05;4.53;;;15.40;99.90;;;;;;4915490;29;20164;-88
2022/05/08 00:02:58;;;;;;;8.57;4.60;;;15.50;99.90;;;;;;4916540;29;20111;-87
2022/05/08 00:05:25;;;;;;;12.30;4.80;;;15.50;99.90;;;;;;4916634;29;20143;-87
2022/05/08 00:07:50;;;;;;;9.70;4.78;;;15.50;99.90;;;;;;4915500;29;20039;-88
2022/05/08 00:10:16;;;;;;;10.48;5.00;;;15.50;99.90;;;;;;4916949;29;20028;-88
2022/05/08 00:12:42;;;;;;;12.27;4.38;;;15.50;99.90;;;;;;4915280;29;20036;-88
2022/05/08 00:15:08;;;;;;;11.20;4.95;;;15.60;99.90;;;;;;4916513;29;20032;-87
2022/05/08 00:17:34;;;;;;;10.50;4.72;;;15.60;99.90;;;;;;4916059;29;20116;-87
2022/05/08 00:20:03;;;;;;;8.63;4.53;;;15.60;99.90;;;;;;4916447;29;20481;-88
2022/05/08 00:22:29;;;;;;;10.63;4.72;;;15.50;99.90;;;;;;4915459;29;20122;-87
2022/05/08 00:24:55;;;;;;;10.68;4.22;;;15.50;99.90;;;;;;4931703;29;20102;-87
2022/05/08 00:27:21;;;;;;;10.38;5.00;;;15.50;99.90;;;;;;4934547;29;20096;-87
2022/05/08 00:29:47;;;;;;;10.52;4.57;;;15.50;99.90;;;;;;4933980;29;20019;-87
2022/05/08 00:32:13;;;;;;;13.25;4.70;;;15.50;99.90;;;;;;4933818;29;20440;-87
2022/05/08 00:34:39;;;;;;;6.53;3.92;;;15.40;99.90;;;;;;4935111;29;20036;-87
2022/05/08 00:37:07;;;;;;;7.75;4.65;;;15.40;99.90;;;;;;4935128;29;20027;-86
2022/05/08 00:39:33;;;;;;;13.27;4.68;;;15.40;99.90;;;;;;4946602;29;20126;-86
2022/05/08 00:42:02;;;;;;;9.88;4.07;;;15.40;99.90;;;;;;4954299;28;20582;-87
2022/05/08 00:44:28;;;;;;;11.57;4.15;;;15.30;99.90;;;;;;4937667;29;20080;-87
2022/05/08 00:46:53;;;;;;;9.98;4.75;;;15.30;99.90;;;;;;4915682;29;20050;-87
2022/05/08 00:49:19;;;;;;;14.25;4.68;;;15.30;99.90;;;;;;4916611;29;20075;-87
2022/05/08 00:51:48;;;;;;;9.52;4.32;;;15.20;99.90;;;;;;4914490;29;20032;-87
2022/05/08 00:54:15;;;;;;;8.55;4.53;;;15.20;99.90;;;;;;4928813;29;20094;-87
2022/05/08 00:56:41;;;;;;;10.30;3.72;;;15.20;99.90;;;;;;4935027;29;20039;-87
2022/05/08 00:59:08;;;;;;;9.02;3.60;;;15.10;99.90;;;;;;4935177;29;20042;-87
2022/05/08 01:01:33;;;;;;;5.95;3.15;;;15.10;99.90;;;;;;4934831;29;20039;-87
2022/05/08 01:03:59;;;;;;;7.13;3.15;;;15.10;99.90;;;;;;4934951;29;20028;-87
2022/05/08 01:06:26;;;;;;;6.15;2.97;;;15.10;99.90;;;;;;4933462;29;20030;-87
2022/05/08 01:08:52;;;;;;;7.43;3.47;;;15.10;99.90;;;;;;4932720;29;20091;-87
2022/05/08 01:11:18;;;;;;;6.43;3.40;;;15.10;99.90;;;;;;4933600;29;20451;-87
2022/05/08 01:13:45;;;;;;;9.25;3.40;;;15.10;99.90;;;;;;4934845;29;20439;-87
2022/05/08 01:16:13;;;;;;;4.88;2.78;;;15.10;99.90;;;;;;4934493;29;20031;-87
2022/05/08 01:18:39;;;;;;;5.38;3.08;;;15.00;99.90;;;;;;4934661;29;20024;-87
2022/05/08 01:21:09;;;;;;;6.57;3.00;;;15.00;99.90;;;;;;4938887;29;20079;-87
2022/05/08 01:23:34;;;;;;;5.18;2.92;;;15.00;99.90;;;;;;4952988;28;20042;-87
2022/05/08 01:26:00;;;;;;;11.32;2.25;;;14.90;99.90;;;;;;4954185;29;20027;-87
2022/05/08 01:28:26;;;;;;;5.30;2.20;;;14.90;99.90;;;;;;4951778;29;20073;-87
2022/05/08 01:30:54;;;;;;;3.47;2.00;;;14.90;99.90;;;;;;4952468;28;20131;-86
2022/05/08 01:33:20;;;;;;;6.40;2.38;;;15.00;99.90;;;;;;4953134;28;20094;-87
2022/05/08 01:35:47;;;;;;;4.45;2.10;;;14.90;99.90;;;;;;4952357;28;20082;-87
2022/05/08 01:38:14;;;;;;;5.18;2.10;;;14.80;99.90;;;;;;4932093;29;20128;-87
2022/05/08 01:40:41;;;;;;;4.72;2.00;;;14.80;99.90;;;;;;4915844;29;20082;-87
2022/05/08 01:43:07;;;;;;;4.88;2.33;;;14.80;99.90;;;;;;4913828;29;20412;-87
2022/05/08 01:45:33;;;;;;;5.38;2.17;;;14.80;99.90;;;;;;4914246;29;20025;-87
2022/05/08 01:50:43;;;;;;;3.42;2.40;;;14.70;99.90;;;;;;4915967;29;20072;-87
2022/05/08 01:53:09;;;;;;;6.68;3.20;;;14.60;99.90;;;;;;4914305;29;20028;-87
2022/05/08 01:55:35;;;;;;;5.75;2.92;;;14.60;99.90;;;;;;4915876;29;20026;-87
2022/05/08 01:58:01;;;;;;;5.95;3.35;;;14.60;99.90;;;;;;4913942;29;20409;-87
2022/05/08 02:00:28;;;;;;;7.47;3.30;;;14.60;99.90;;;;;;4929234;29;20027;-87
2022/05/08 02:02:59;;;;;;;4.53;2.78;;;14.50;99.90;;;;;;4934570;29;20042;-87
2022/05/08 02:05:25;;;;;;;4.35;3.03;;;14.50;99.90;;;;;;4940884;29;20028;-87
2022/05/08 02:07:51;;;;;;;5.82;3.25;;;14.60;99.90;;;;;;4953104;28;20038;-87
2022/05/08 02:10:17;;;;;;;6.18;3.78;;;14.40;99.90;;;;;;4952720;28;20023;-87
2022/05/08 02:12:44;;;;;;;6.05;3.30;;;14.50;99.90;;;;;;4951900;28;20024;-87
2022/05/08 02:15:12;;;;;;;7.95;4.03;;;14.50;99.90;;;;;;4952217;28;20035;-87
2022/05/08 02:17:38;;;;;;;6.18;3.88;;;14.40;99.90;;;;;;4952284;28;20031;-87
2022/05/08 02:20:07;;;;;;;8.73;4.28;;;14.40;99.90;;;;;;4955245;28;20042;-87
2022/05/08 02:22:34;;;;;;;9.52;4.47;;;14.40;99.90;;;;;;4955696;28;20043;-87
2022/05/08 02:25:00;;;;;;;9.10;4.18;;;14.30;99.90;;;;;;4956049;28;20024;-88
2022/05/08 02:27:26;;;;;;;8.10;4.40;;;14.30;99.90;;;;;;4955620;28;20431;-88
2022/05/08 02:29:52;;;;;;;10.32;4.57;;;14.20;99.90;;;;;;4956596;28;20502;-88
2022/05/08 02:32:18;;;;;;;7.72;4.88;;;14.20;99.90;;;;;;4923726;28;20492;-88
2022/05/08 02:34:44;;;;;;;12.18;5.47;;;14.20;99.90;;;;;;4918664;29;20115;-87
2022/05/08 02:37:10;;;;;;;8.10;4.38;;;14.20;99.90;;;;;;4918422;29;20065;-87
2022/05/08 02:39:36;;;;;;;16.40;5.93;;;14.20;99.90;;;;;;4933571;29;20551;-87
2022/05/08 02:42:02;;;;;;;11.18;5.53;;;14.20;99.90;;;;;;4942727;29;20031;-87
2022/05/08 02:44:28;;;;;;;14.90;6.57;;;14.20;99.90;;;;;;4930686;29;20012;-87
2022/05/08 02:46:53;;;;;;;12.02;6.03;;;14.20;99.90;;;;;;4917270;29;20517;-86
2022/05/08 02:49:19;;;;;;;17.50;6.57;;;14.20;99.90;;;;;;4917920;29;20391;-87
2022/05/08 02:51:45;;;;;;;11.20;6.10;;;14.20;99.90;;;;;;4935972;29;20042;-87
2022/05/08 02:54:10;;;;;;;12.27;6.55;;;14.20;99.90;;;;;;4935813;29;20126;-87
2022/05/08 02:59:20;;;;;;;13.77;6.13;;;14.10;99.90;;;;;;4937258;29;20039;-87
2022/05/08 03:01:46;;;;;;;14.65;6.35;;;14.10;99.90;;;;;;4935750;29;20039;-87
2022/05/08 03:04:11;;;;;;;11.25;6.53;;;14.10;99.90;;;;;;4936117;29;20051;-87
2022/05/08 03:06:38;;;;;;;12.82;6.35;;;14.10;99.90;;;;;;4935910;29;20069;-87
2022/05/08 03:09:03;;;;;;;13.60;6.88;;;14.00;99.90;;;;;;4935449;29;20049;-87
2022/05/08 03:11:29;;;;;;;13.40;7.22;;;14.00;99.90;;;;;;4924521;29;20036;-87
2022/05/08 03:13:57;;;;;;;18.30;6.97;;;14.00;99.90;;;;;;4917031;29;20028;-87
2022/05/08 03:16:23;;;;;;;16.20;8.40;;;14.00;99.90;;;;;;4916474;29;20035;-87
2022/05/08 03:18:49;;;;;;;14.68;7.40;;;14.00;99.90;;;;;;4917878;29;20024;-87
2022/05/08 03:21:16;;;;;;;12.20;7.85;;;14.00;99.90;;;;;;4925518;29;20106;-87
2022/05/08 03:23:43;;;;;;;10.25;6.60;;;14.10;99.90;;;;;;4935220;29;20030;-87
2022/05/08 03:26:09;;;;;;;19.00;7.88;;;14.00;99.90;;;;;;4934691;29;20032;-88
2022/05/08 03:28:38;;;;;;;11.25;6.88;;;14.00;99.90;;;;;;4935885;29;20024;-87
2022/05/08 03:31:03;;;;;;;14.57;7.90;;;14.00;99.90;;;;;;4934504;29;20074;-88
2022/05/08 03:33:31;;;;;;;18.10;7.60;;;14.00;99.90;;;;;;4935171;29;20059;-88
2022/05/08 03:35:58;;;;;;;15.82;8.20;;;14.00;99.90;;;;;;4940882;29;20086;-87
2022/05/08 03:38:24;;;;;;;20.73;7.82;;;14.00;99.90;;;;;;4950088;28;20138;-87
2022/05/08 03:40:50;;;;;;;14.80;7.60;;;14.00;99.90;;;;;;4936088;29;20031;-88
2022/05/08 03:43:17;;;;;;;13.60;8.02;;;14.00;99.90;;;;;;4935764;29;20499;-87
2022/05/08 03:45:43;;;;;;;11.57;7.50;;;14.00;99.90;;;;;;4936186;29;20035;-88
2022/05/08 03:48:09;;;;;;;15.77;7.53;;;13.90;99.90;;;;;;4934575;29;20036;-87
2022/05/08 03:50:36;;;;;;;10.65;7.05;;;13.90;99.90;;;;;;4934240;29;20123;-87
2022/05/08 03:53:03;;;;;;;15.10;8.00;;;13.90;99.90;;;;;;4936015;29;20578;-87
2022/05/08 03:55:29;;;;;;;14.38;7.97;;;13.80;99.90;;;;;;4934554;29;20028;-87
2022/05/08 03:57:55;;;;;;;16.90;8.77;;;13.80;99.90;;;;;;4934702;29;20618;-87
2022/05/08 04:00:21;;;;;;;15.27;8.32;;;13.70;99.90;;;;;;4936366;29;20551;-88
2022/05/08 04:02:47;;;;;;;15.77;7.78;;;13.70;99.90;;;;;;4934108;29;20035;-87
2022/05/08 04:05:13;;;;;;;17.92;8.32;;;13.80;99.90;;;;;;4934511;29;20385;-87
2022/05/08 04:07:39;;;;;;;15.00;7.97;;;13.80;99.90;;;;;;4935995;29;20043;-88
2022/05/08 04:10:05;;;;;;;12.73;7.88;;;13.80;99.90;;;;;;4935624;29;20024;-87
2022/05/08 04:12:31;;;;;;;17.42;8.38;;;13.70;99.90;;;;;;4915711;29;20036;-87
2022/05/08 04:14:57;;;;;;;13.50;7.93;;;13.70;99.90;;;;;;4946841;28;20095;-87
2022/05/08 04:17:23;;;;;;;14.15;8.00;;;13.70;99.90;;;;;;4916591;29;20036;-87
2022/05/08 04:19:49;;;;;;;16.00;8.35;;;13.70;99.90;;;;;;4916978;29;20104;-87
2022/05/08 04:24:59;;;;;;;12.93;7.90;;;13.60;99.90;;;;;;4935696;29;20039;-88
2022/05/08 04:27:25;;;;;;;18.05;7.82;;;13.60;99.90;;;;;;4934317;29;20028;-88
2022/05/08 04:29:50;;;;;;;16.38;8.32;;;13.50;99.90;;;;;;4931214;29;20456;-87
2022/05/08 04:32:16;;;;;;;13.90;8.48;;;13.50;99.90;;;;;;4916590;29;20040;-87
2022/05/08 04:34:42;;;;;;;12.98;8.30;;;13.60;99.90;;;;;;4915169;29;20028;-87
2022/05/08 04:37:09;;;;;;;15.57;9.25;;;13.60;99.90;;;;;;4915653;29;20032;-85
2022/05/08 04:39:35;;;;;;;15.30;8.65;;;13.50;99.90;;;;;;4928973;29;20031;-87
2022/05/08 04:42:01;;;;;;;17.30;9.20;;;13.50;99.90;;;;;;4934660;29;20484;-87
2022/05/08 04:44:28;;;;;;;15.80;8.93;;;13.50;99.90;;;;;;4934889;29;20059;-87
2022/05/08 04:46:53;;;;;;;19.10;8.70;;;13.40;99.90;;;;;;4935257;29;20059;-87
2022/05/08 04:49:19;;;;;;;16.73;8.45;;;13.40;99.90;;;;;;4935161;29;20051;-87
2022/05/08 04:51:45;;;;;;;16.08;9.27;;;13.40;99.90;;;;;;4933897;29;20042;-87
2022/05/08 04:54:10;;;;;;;12.63;8.45;;;13.40;99.90;;;;;;4932888;29;20038;-87
2022/05/08 04:56:36;;;;;;;16.80;9.38;;;13.40;99.90;;;;;;4935090;29;20043;-87
2022/05/08 04:59:02;;;;;;;16.58;9.20;;;13.40;99.90;;;;;;4933722;29;20024;-87
2022/05/08 05:01:28;;;;;;;16.02;8.55;;;13.40;99.90;;;;;;4923030;29;20040;-87
2022/05/08 05:03:54;;;;;;;14.75;8.85;;;13.40;99.90;;;;;;4918874;29;20111;-87
2022/05/08 05:06:20;;;;;;;11.70;8.82;;;13.40;99.90;;;;;;4933081;29;20529;-87
2022/05/08 05:08:45;;;;;;;15.52;8.90;;;13.40;99.90;;;;;;4947477;29;20099;-87
2022/05/08 05:11:11;;;;;;;16.45;9.00;;;13.40;99.90;;;;;;4952791;28;20058;-87
2022/05/08 05:13:38;;;;;;;17.48;8.85;;;13.40;99.90;;;;;;4954177;28;20077;-88
2022/05/08 05:16:07;;;;;;;16.25;9.68;;;13.40;99.90;;;;;;4954362;28;20066;-88
2022/05/08 05:18:33;;;;;;;16.55;9.63;;;13.40;99.90;;;;;;4951329;28;20027;-87
2022/05/08 05:20:59;;;;;;;14.15;9.63;;;13.40;99.90;;;;;;4935096;29;20040;-87
2022/05/08 05:23:25;;;;;;;14.82;8.80;;;13.40;99.90;;;;;;4934618;29;20024;-87
2022/05/08 05:25:51;;;;;;;23.27;10.25;;;13.50;99.90;;;;;;4933815;29;20028;-87
2022/05/08 05:28:18;;;;;;;15.40;8.77;;;13.40;99.90;;;;;;4933788;29;20035;-88
2022/05/08 05:30:44;;;;;;;17.35;9.40;;;13.40;99.90;;;;;;4933581;29;20032;-87
2022/05/08 05:33:15;;;;;;;12.52;8.93;;;13.50;99.90;;;;;;4933580;29;20038;-88
2022/05/08 05:35:41;;;;;;;19.95;10.07;;;13.50;99.90;;;;;;4933631;29;20484;-88
2022/05/08 05:38:07;;;;;;;21.52;9.40;;;13.60;99.90;;;;;;4933937;29;20039;-88
2022/05/08 05:40:33;;;;;;;17.15;10.07;;;13.60;99.90;;;;;;4932204;29;20042;-88
2022/05/08 05:42:59;;;;;;;20.05;9.88;;;13.60;99.90;;;;;;4934122;29;20062;-87
2022/05/08 05:45:24;;;;;;;19.63;9.57;;;13.70;99.90;;;;;;4933438;29;20484;-86
2022/05/08 05:47:52;;;;;;;18.23;9.85;;;13.70;99.90;;;;;;4933545;29;20020;-87
2022/05/08 05:50:21;;;;;;;18.05;11.05;;;13.70;99.90;;;;;;4941027;29;20397;-85
2022/05/08 05:52:47;;;;;;;17.55;9.25;;;13.70;99.90;;;;;;4946088;28;20064;-86
2022/05/08 05:55:13;;;;;;;16.42;9.15;;;13.70;99.90;;;;;;4936227;29;20031;-86
2022/05/08 05:57:39;;;;;;;14.85;9.18;;;13.70;99.90;;;;;;4938394;29;20107;-87
2022/05/08 06:00:13;;;;;;;16.65;9.80;;;13.70;99.90;;;;;;4937697;29;20063;-86
2022/05/08 06:02:43;;;;;;;16.73;9.63;;;13.70;99.90;;;;;;4936742;29;20114;-87
2022/05/08 06:05:10;;;;;;;18.75;9.70;;;13.80;99.90;;;;;;4936936;29;20032;-86
2022/05/08 06:07:36;;;;;;;17.17;9.15;;;13.90;99.90;;;;;;4938214;29;20024;-86
2022/05/08 06:10:05;;;;;;;17.25;9.25;;;13.90;99.90;;;;;;4955582;29;20028;-86
2022/05/08 06:12:31;;;;;;;15.43;9.27;;;14.00;99.90;;;;;;4957357;28;20023;-86
2022/05/08 06:14:56;;;;;;;15.57;9.45;;;14.00;99.90;;;;;;4955892;29;20070;-87
2022/05/08 06:17:22;;;;;;;16.38;9.30;;;14.10;99.90;;;;;;4956901;29;20408;-87
2022/05/08 06:19:48;;;;;;;18.67;9.35;;;14.10;99.90;;;;;;4952632;29;20100;-86
2022/05/08 06:22:14;;;;;;;15.20;9.70;;;14.20;99.90;;;;;;4936286;29;20031;-87
2022/05/08 06:24:39;;;;;;;17.33;9.32;;;14.30;99.90;;;;;;4938023;29;20103;-86
2022/05/08 06:27:05;;;;;;;17.88;9.27;;;14.30;99.90;;;;;;4935299;29;20020;-86
2022/05/08 06:29:34;;;;;;;16.77;9.00;;;14.30;99.90;;;;;;4937533;29;20078;-86
2022/05/08 06:32:01;;;;;;;17.63;9.18;;;14.40;99.90;;;;;;4936170;29;20051;-86
2022/05/08 06:34:27;;;;;;;15.23;9.05;;;14.50;99.90;;;;;;4934598;29;20039;-87
2022/05/08 06:36:54;;;;;;;15.35;9.02;;;14.50;99.90;;;;;;4924836;29;20032;-87
2022/05/08 06:39:20;;;;;;;15.57;8.90;;;14.60;99.90;;;;;;4934937;29;20425;-86
2022/05/08 06:41:46;;;;;;;14.38;8.57;;;14.60;99.90;;;;;;4936075;29;20032;-87
2022/05/08 06:44:13;;;;;;;14.70;8.93;;;14.70;99.90;;;;;;4937257;29;20035;-87
2022/05/08 06:46:39;;;;;;;17.77;8.23;;;14.80;99.90;;;;;;4937148;29;20035;-87
2022/05/08 06:49:05;;;;;;;16.02;8.10;;;14.80;99.90;;;;;;4936017;29;20068;-86
2022/05/08 06:51:32;;;;;;;17.42;8.35;;;14.90;99.90;;;;;;4935884;29;20023;-86
2022/05/08 06:53:57;;;;;;;15.07;9.18;;;15.00;99.90;;;;;;4950957;29;20046;-86
2022/05/08 06:56:25;;;;;;;15.63;8.68;;;15.10;99.90;;;;;;4955052;28;20030;-86
2022/05/08 07:01:42;;;;;;;12.23;7.20;;;15.10;99.90;;;;;;4956819;29;20155;-87
2022/05/08 07:04:10;;;;;;;14.50;7.35;;;15.30;99.90;;;;;;4954660;28;20059;-86
2022/05/08 07:06:36;;;;;;;13.35;7.32;;;15.30;99.90;;;;;;4949690;28;20024;-86
2022/05/08 07:09:03;;;;;;;12.93;7.78;;;15.30;99.90;;;;;;4936118;29;20499;-86
2022/05/08 07:11:30;;;;;;;12.38;7.57;;;15.40;99.90;;;;;;4935556;29;20020;-87
2022/05/08 07:13:57;;;;;;;12.38;7.20;;;15.40;99.90;;;;;;4935944;29;20051;-86
2022/05/08 07:16:23;;;;;;;12.32;6.82;;;15.50;99.90;;;;;;4935692;29;20027;-86
2022/05/08 07:18:49;;;;;;;14.20;7.85;;;15.60;99.90;;;;;;4936794;29;20027;-87
2022/05/08 07:21:15;;;;;;;12.45;7.15;;;15.70;99.90;;;;;;4936086;29;20392;-87
2022/05/08 07:23:40;;;;;;;9.82;6.43;;;15.80;99.90;;;;;;4917695;29;20412;-87
2022/05/08 07:26:06;;;;;;;13.15;7.68;;;15.80;99.90;;;;;;4916985;29;20036;-86
2022/05/08 07:28:32;;;;;;;11.02;7.53;;;15.90;99.90;;;;;;4942557;29;20058;-79
2022/05/08 07:30:58;;;;;;;13.32;7.22;;;16.00;99.90;;;;;;4943235;28;20027;-83
2022/05/08 07:33:25;;;;;;;13.43;7.35;;;16.00;99.90;;;;;;4947444;28;20062;-78
2022/05/08 07:38:35;;;;;;;13.15;7.38;;;16.20;99.90;;;;;;4944820;29;20575;-82
2022/05/08 07:41:01;;;;;;;11.15;6.93;;;16.40;99.90;;;;;;4954101;29;20027;-88
2022/05/08 07:43:27;;;;;;;12.32;6.47;;;16.40;99.90;;;;;;4954558;28;20403;-84
2022/05/08 07:45:53;;;;;;;11.45;6.32;;;16.40;99.90;;;;;;4954892;28;20023;-91
2022/05/08 07:48:19;;;;;;;14.25;7.35;;;16.40;99.90;;;;;;4953799;28;20023;-87
2022/05/08 07:50:45;;;;;;;11.30;6.38;;;16.50;99.90;;;;;;4954357;28;20551;-90
2022/05/08 07:53:12;;;;;;;10.30;5.85;;;16.50;99.90;;;;;;4950516;29;20166;-89
2022/05/08 07:55:41;;;;;;;9.38;5.57;;;16.60;99.90;;;;;;4954184;28;20079;-85
2022/05/08 07:58:09;;;;;;;12.77;6.32;;;16.80;99.90;;;;;;4917296;28;20070;-88
2022/05/08 08:00:36;;;;;;;8.25;5.43;;;16.80;99.90;;;;;;4917693;29;20075;-80
2022/05/08 08:03:03;;;;;;;10.48;5.88;;;17.00;99.90;;;;;;4935837;29;20035;-80
2022/05/08 08:05:29;;;;;;;13.68;5.90;;;17.20;99.90;;;;;;4941888;29;20107;-80
2022/05/08 08:07:55;;;;;;;10.13;5.57;;;17.50;99.90;;;;;;4950025;29;20031;-77
2022/05/08 08:10:21;;;;;;;13.80;5.28;;;17.60;99.90;;;;;;4954011;29;20015;-77
2022/05/08 08:12:46;;;;;;;12.30;4.82;;;17.70;99.90;;;;;;4953103;29;20040;-89
2022/05/08 08:15:12;;;;;;;11.82;5.70;;;18.00;99.90;;;;;;4952828;29;20015;-81
2022/05/08 08:17:39;;;;;;;11.43;6.28;;;18.00;99.90;;;;;;4953644;28;20028;-81
2022/05/08 08:20:06;;;;;;;14.07;5.82;;;18.40;99.90;;;;;;4952788;29;20023;-80
2022/05/08 08:22:32;;;;;;;10.88;5.10;;;18.60;99.90;;;;;;4953915;28;20027;-80
2022/05/08 08:25:00;;;;;;;13.35;5.65;;;18.90;99.90;;;;;;4953910;28;20023;-80
2022/05/08 08:27:29;;;;;;;8.73;4.05;;;19.00;99.90;;;;;;4951821;29;20023;-80
2022/05/08 08:29:55;;;;;;;10.93;4.53;;;19.10;99.90;;;;;;4953179;28;20399;-80
2022/05/08 08:32:22;;;;;;;7.53;5.47;;;19.40;99.90;;;;;;4943178;28;20033;-83
2022/05/08 08:34:48;;;;;;;9.27;4.75;;;19.30;99.90;;;;;;4954114;29;20019;-82
2022/05/08 08:37:14;;;;;;;7.55;5.03;;;19.50;99.90;;;;;;4959477;28;20031;-86
2022/05/08 08:39:40;;;;;;;11.45;5.35;;;19.50;99.90;;;;;;4937582;28;20083;-82
2022/05/08 08:42:06;;;;;;;11.93;5.18;;;19.80;99.90;;;;;;4939913;28;20039;-83
2022/05/08 08:50:05;;;;;;;11.57;5.85;;;20.10;99.90;;;;;;4940994;29;20023;-84
2022/05/08 08:52:31;;;;;;;13.85;5.70;;;20.50;99.90;;;;;;4944896;28;20047;-84
2022/05/08 08:54:57;;;;;;;9.98;5.25;;;20.50;99.90;;;;;;4940026;29;20028;-84
2022/05/08 08:57:22;;;;;;;9.77;6.00;;;20.50;99.90;;;;;;4948739;29;20027;-83
2022/05/08 08:59:48;;;;;;;7.90;5.22;;;20.80;99.90;;;;;;4952581;28;20032;-84
2022/05/08 09:02:18;;;;;;;11.27;5.03;;;20.80;99.90;;;;;;4954080;28;20542;-84
2022/05/08 09:04:45;;;;;;;9.82;5.28;;;20.80;99.90;;;;;;4947665;28;20027;-80
2022/05/08 09:07:52;;;;;;;8.60;4.72;;;21.00;99.90;;;;;;4954832;29;21042;-81
2022/05/08 09:10:21;;;;;;;14.38;5.47;;;21.00;98.70;;;;;;4949834;29;20113;-85
2022/05/08 09:12:52;;;;;;;12.25;5.72;;;21.20;99.30;;;;;;4937890;29;20032;-79
2022/05/08 09:15:22;;;;;;;9.35;5.63;;;20.80;99.10;;;;;;4929623;29;20063;-86
2022/05/08 09:17:51;;;;;;;16.00;6.55;;;21.20;99.00;;;;;;4946314;29;20070;-86
2022/05/08 09:20:43;;;;;;;9.35;5.07;;;21.00;97.90;;;;;;4946738;29;20082;-83
2022/05/08 09:23:13;;;;;;;7.45;4.95;;;21.40;98.70;;;;;;4952572;28;20031;-82
2022/05/08 09:25:44;;;;;;;13.93;4.93;;;21.80;98.60;;;;;;4935941;29;20596;-78
2022/05/08 09:28:14;;;;;;;11.13;5.40;;;21.70;98.40;;;;;;4953645;28;20511;-86
2022/05/08 09:31:08;;;;;;;12.95;5.50;;;21.60;98.70;;;;;;4956198;28;20262;-81
2022/05/08 09:33:35;;;;;;;11.77;5.13;;;21.20;97.70;;;;;;4957852;29;20487;-81
2022/05/08 09:36:05;;;;;;;10.07;5.00;;;21.70;98.00;;;;;;4957486;29;20042;-82
2022/05/08 09:38:47;;;;;;;12.20;5.47;;;21.40;96.80;;;;;;4951548;28;20127;-80
2022/05/08 09:41:15;;;;;;;11.63;5.07;;;21.30;97.60;;;;;;4938985;29;20063;-79
2022/05/08 09:43:41;;;;;;;9.90;5.03;;;21.20;97.60;;;;;;4938817;29;20110;-80
2022/05/08 09:46:08;;;;;;;7.93;5.07;;;21.60;97.80;;;;;;4933755;29;20031;-79
2022/05/08 09:48:34;;;;;;;7.60;4.85;;;21.30;96.60;;;;;;4927241;29;20086;-79
2022/05/08 09:51:03;;;;;;;6.90;4.25;;;21.20;96.60;;;;;;4958058;28;20027;-79
2022/05/08 09:53:30;;;;;;;11.25;4.68;;;21.80;96.00;;;;;;4951103;28;20103;-80
2022/05/08 09:55:57;;;;;;;8.63;4.63;;;21.70;96.50;;;;;;4940177;29;20032;-80
2022/05/08 09:58:23;;;;;;;7.50;4.55;;;22.00;96.00;;;;;;4957936;28;20086;-79
2022/05/08 10:00:51;;;;;;;9.43;5.00;;;21.70;95.50;;;;;;4955011;29;20023;-85
2022/05/08 10:03:18;;;;;;;7.88;3.83;;;21.60;94.90;;;;;;4942573;29;20500;-80
2022/05/08 10:05:44;;;;;;;9.00;3.85;;;21.50;95.10;;;;;;4947201;29;20024;-79
2022/05/08 10:08:13;;;;;;;8.75;4.32;;;21.70;94.60;;;;;;4955951;28;20467;-81
2022/05/08 10:13:53;;;;;;;14.00;3.88;;;21.80;94.60;;;;;;4946468;29;20089;-83
2022/05/08 10:16:44;;;;;;;10.35;4.22;;;22.00;93.50;;;;;;4948203;28;20075;-78
2022/05/08 10:21:57;;;;;;;6.70;4.22;;;22.10;92.30;;;;;;4942281;29;20676;-82
2022/05/08 10:24:36;;;;;;;9.02;4.15;;;22.00;93.60;;;;;;4943584;29;20027;-85
2022/05/08 10:27:20;;;;;;;12.95;4.65;;;21.80;93.50;;;;;;4954445;29;20368;-78
2022/05/08 10:29:48;;;;;;;11.48;4.82;;;21.80;93.40;;;;;;4954500;28;20023;-84
2022/05/08 10:32:34;;;;;;;11.48;4.78;;;22.30;93.60;;;;;;4943265;29;20028;-85
2022/05/08 10:35:20;;;;;;;9.75;4.30;;;22.20;93.10;;;;;;4956075;28;20170;-79
2022/05/08 10:37:50;;;;;;;7.95;4.10;;;22.60;92.40;;;;;;4954634;28;20106;-79
2022/05/08 10:40:22;;;;;;;11.98;4.70;;;22.50;91.90;;;;;;4945205;28;20020;-79
2022/05/08 10:42:54;;;;;;;7.85;4.45;;;22.20;91.70;;;;;;4926220;29;20043;-78
2022/05/08 10:45:32;;;;;;;8.15;3.95;;;22.20;91.80;;;;;;4944836;29;20031;-79
2022/05/08 10:48:04;;;;;;;7.57;3.40;;;22.90;91.70;;;;;;4950869;29;20087;-79
2022/05/08 10:50:30;;;;;;;9.38;4.53;;;22.90;91.10;;;;;;4946840;29;20016;-80
2022/05/08 10:52:57;;;;;;;9.07;4.32;;;23.10;91.50;;;;;;4934649;29;20032;-83
2022/05/08 10:55:23;;;;;;;10.55;3.92;;;22.80;90.70;;;;;;4928381;29;20026;-75
2022/05/08 10:57:50;;;;;;;9.30;3.95;;;22.90;90.80;;;;;;4955602;28;20035;-76
2022/05/08 11:00:21;;;;;;;7.43;3.83;;;23.20;90.20;;;;;;4956002;29;20027;-76
2022/05/08 11:02:52;;;;;;;6.55;3.92;;;23.20;90.70;;;;;;4945348;28;20082;-76
2022/05/08 11:05:22;;;;;;;8.80;4.22;;;22.60;90.90;;;;;;4939706;28;20019;-76
2022/05/08 11:07:55;;;;;;;4.75;3.45;;;22.70;91.30;;;;;;4935370;29;20051;-78
2022/05/08 11:10:25;;;;;;;6.65;4.20;;;22.90;90.00;;;;;;4942325;29;20011;-75
2022/05/08 11:13:10;;;;;;;6.47;4.30;;;23.20;90.20;;;;;;4944830;29;20075;-76
2022/05/08 11:15:53;;;;;;;7.85;4.18;;;23.30;88.90;;;;;;4937419;29;20473;-76
2022/05/08 11:18:22;;;;;;;8.57;3.53;;;23.00;89.30;;;;;;4935833;29;20082;-75
2022/05/08 11:20:59;;;;;;;7.85;3.58;;;23.10;89.50;;;;;;4935909;29;20032;-76
2022/05/08 11:23:29;;;;;;;7.75;4.10;;;23.30;89.70;;;;;;4937132;29;20024;-76
2022/05/08 11:25:57;;;;;;;7.97;4.50;;;23.30;88.50;;;;;;4937980;29;20051;-76
2022/05/08 11:28:24;;;;;;;9.30;4.40;;;23.50;90.00;;;;;;4936122;29;20019;-76
2022/05/08 11:30:54;;;;;;;5.25;3.58;;;23.70;88.40;;;;;;4938625;28;20077;-76
2022/05/08 11:36:32;;;;;;;10.38;4.45;;;23.10;86.90;;;;;;4937975;29;20079;-76
2022/05/08 11:39:00;;;;;;;8.68;3.58;;;22.50;90.60;;;;;;4940216;28;20091;-76
2022/05/08 11:41:35;;;;;;;13.43;3.70;;;23.00;89.80;;;;;;4935358;29;20106;-75
2022/05/08 11:44:24;;;;;;;5.10;3.08;;;23.60;88.50;;;;;;4937172;29;20232;-76
2022/05/08 11:46:57;;;;;;;443.83;44.30;;;24.00;85.20;;;;;;4935319;29;20042;-75
2022/05/08 11:49:30;;;;;;;4.28;2.83;;;24.40;82.50;;;;;;4938022;29;20424;-75
2022/05/08 11:52:01;;;;;;;8.13;2.70;;;23.50;82.00;;;;;;4937355;29;20051;-77
2022/05/08 11:54:32;;;;;;;6.20;3.38;;;22.70;85.90;;;;;;4938122;29;20055;-77
2022/05/08 11:57:18;;;;;;;5.10;2.90;;;22.20;86.40;;;;;;4935587;29;20032;-77
2022/05/08 11:59:49;;;;;;;6.80;2.95;;;22.70;86.00;;;;;;4933769;29;20399;-76
2022/05/08 12:02:15;;;;;;;6.43;3.20;;;22.40;86.20;;;;;;4940355;29;20030;-76
2022/05/08 12:04:55;;;;;;;16.02;3.05;;;22.80;84.20;;;;;;4935033;29;20062;-76
2022/05/08 12:07:21;;;;;;;9.02;2.80;;;23.30;83.60;;;;;;4930402;29;20028;-76
2022/05/08 12:09:47;;;;;;;7.65;3.38;;;23.60;84.70;;;;;;4936203;29;20436;-75
2022/05/08 12:12:28;;;;;;;7.53;3.25;;;23.50;82.70;;;;;;4934806;29;20042;-76
2022/05/08 12:15:07;;;;;;;12.20;3.17;;;22.90;82.60;;;;;;4935064;29;20039;-76
2022/05/08 12:17:42;;;;;;;9.63;3.35;;;22.90;83.90;;;;;;4935742;29;20047;-75
2022/05/08 12:20:26;;;;;;;8.82;2.72;;;23.30;82.00;;;;;;4928411;29;20083;-76
2022/05/08 12:22:58;;;;;;;4.25;2.63;;;23.50;80.40;;;;;;4934985;29;20028;-75
2022/05/08 12:25:24;;;;;;;6.40;3.03;;;23.60;78.70;;;;;;4943376;29;20472;-76
2022/05/08 12:27:50;;;;;;;7.82;2.70;;;24.10;78.30;;;;;;4930752;29;20032;-75
2022/05/08 12:30:16;;;;;;;11.27;2.72;;;24.30;75.80;;;;;;4942610;29;20026;-75
2022/05/08 12:32:42;;;;;;;6.88;3.20;;;23.70;79.10;;;;;;4932290;29;20027;-75
2022/05/08 12:35:08;;;;;;;4.53;2.78;;;23.20;77.70;;;;;;4943670;29;20028;-75
2022/05/08 12:37:34;;;;;;;2.95;2.17;;;22.90;78.00;;;;;;4947517;29;20098;-75
2022/05/08 12:40:00;;;;;;;4.97;2.30;;;23.50;76.70;;;;;;4942727;28;20488;-76
2022/05/08 12:42:26;;;;;;;4.05;2.50;;;23.80;74.00;;;;;;4951039;29;20089;-76
2022/05/08 12:44:52;;;;;;;4.47;2.30;;;24.10;73.20;;;;;;4951281;28;20031;-75
2022/05/08 12:47:19;;;;;;;4.03;2.20;;;24.30;72.80;;;;;;4954010;29;20043;-75
2022/05/08 12:49:45;;;;;;;8.05;2.10;;;24.40;72.10;;;;;;4954013;28;20015;-75
2022/05/08 12:52:11;;;;;;;7.50;2.60;;;24.20;72.30;;;;;;4952723;28;20038;-76
2022/05/08 12:54:37;;;;;;;4.47;2.40;;;24.00;73.60;;;;;;4939677;28;20042;-76
2022/05/08 12:57:06;;;;;;;3.97;2.40;;;23.20;75.00;;;;;;4935396;29;20031;-76
2022/05/08 12:59:42;;;;;;;5.20;2.38;;;22.80;75.00;;;;;;4934768;29;20027;-75
2022/05/08 13:02:12;;;;;;;8.35;2.13;;;23.40;74.10;;;;;;4931072;29;20024;-75
2022/05/08 13:04:42;;;;;;;4.78;2.22;;;24.20;72.70;;;;;;4941062;29;20122;-75
2022/05/08 13:07:08;;;;;;;5.43;2.30;;;24.30;70.20;;;;;;4951499;28;20023;-74
2022/05/08 13:09:34;;;;;;;7.95;2.00;;;24.40;72.80;;;;;;4954612;29;20023;-75
2022/05/08 13:12:03;;;;;;;7.50;2.00;;;24.80;71.90;;;;;;4954267;28;20106;-75